sensor_id;sensor_type;location;lat;lon;timestamp;P1;durP1;ratioP1;P2;durP2;ratioP2
3571;SDS011;7958;53.024;12.970;2023-05-10T00:00:09;4.27;;;3.37;;
3571;SDS011;7958;53.024;12.970;2023-05-10T00:02:37;3.87;;;3.50;;
3571;SDS011;7958;53.024;12.970;2023-05-10T00:05:04;4.00;;;3.33;;
3571;SDS011;7958;53.024;12.970;2023-05-10T00:07:31;6.10;;;3.50;;
3571;SDS011;7958;53.024;12.970;2023-05-10T00:10:01;4.50;;;3.80;;
3571;SDS011;7958;53.024;12.970;2023-05-10T00:12:29;6.00;;;3.40;;
3571;SDS011;7958;53.024;12.970;2023-05-10T00:14:58;6.67;;;4.13;;
3571;SDS011;7958;53.024;12.970;2023-05-10T00:17:24;8.33;;;4.10;;
3571;SDS011;7958;53.024;12.970;2023-05-10T00:19:51;5.20;;;4.00;;
3571;SDS011;7958;53.024;12.970;2023-05-10T00:22:19;4.63;;;3.80;;
3571;SDS011;7958;53.024;12.970;2023-05-10T00:24:46;4.67;;;4.17;;
3571;SDS011;7958;53.024;12.970;2023-05-10T00:27:16;7.40;;;3.87;;
3571;SDS011;7958;53.024;12.970;2023-05-10T00:29:42;5.53;;;4.20;;
3571;SDS011;7958;53.024;12.970;2023-05-10T00:32:09;4.50;;;4.10;;
3571;SDS011;7958;53.024;12.970;2023-05-10T00:34:35;4.00;;;3.70;;
3571;SDS011;7958;53.024;12.970;2023-05-10T00:37:03;6.13;;;4.20;;
3571;SDS011;7958;53.024;12.970;2023-05-10T00:39:31;5.90;;;3.83;;
3571;SDS011;7958;53.024;12.970;2023-05-10T00:41:59;6.50;;;4.57;;
3571;SDS011;7958;53.024;12.970;2023-05-10T00:44:28;6.37;;;3.93;;
3571;SDS011;7958;53.024;12.970;2023-05-10T00:46:55;5.47;;;3.83;;
3571;SDS011;7958;53.024;12.970;2023-05-10T00:49:23;4.70;;;4.10;;
3571;SDS011;7958;53.024;12.970;2023-05-10T00:51:50;6.00;;;4.40;;
3571;SDS011;7958;53.024;12.970;2023-05-10T00:54:16;5.33;;;3.90;;
3571;SDS011;7958;53.024;12.970;2023-05-10T00:56:43;5.57;;;4.13;;
3571;SDS011;7958;53.024;12.970;2023-05-10T00:59:13;4.77;;;3.67;;
3571;SDS011;7958;53.024;12.970;2023-05-10T01:01:43;5.60;;;4.27;;
3571;SDS011;7958;53.024;12.970;2023-05-10T01:04:10;6.03;;;4.03;;
3571;SDS011;7958;53.024;12.970;2023-05-10T01:06:39;4.47;;;3.93;;
3571;SDS011;7958;53.024;12.970;2023-05-10T01:09:07;6.63;;;5.23;;
3571;SDS011;7958;53.024;12.970;2023-05-10T01:11:34;6.50;;;4.33;;
3571;SDS011;7958;53.024;12.970;2023-05-10T01:14:01;7.60;;;4.47;;
3571;SDS011;7958;53.024;12.970;2023-05-10T01:16:29;6.60;;;6.00;;
3571;SDS011;7958;53.024;12.970;2023-05-10T01:19:01;5.03;;;4.50;;
3571;SDS011;7958;53.024;12.970;2023-05-10T01:21:31;7.57;;;4.67;;
3571;SDS011;7958;53.024;12.970;2023-05-10T01:24:09;6.20;;;4.90;;
3571;SDS011;7958;53.024;12.970;2023-05-10T01:26:42;5.23;;;4.70;;
3571;SDS011;7958;53.024;12.970;2023-05-10T01:29:33;9.07;;;4.30;;
3571;SDS011;7958;53.024;12.970;2023-05-10T01:32:17;5.60;;;4.50;;
3571;SDS011;7958;53.024;12.970;2023-05-10T01:34:52;4.70;;;4.30;;
3571;SDS011;7958;53.024;12.970;2023-05-10T01:37:26;4.40;;;4.00;;
3571;SDS011;7958;53.024;12.970;2023-05-10T01:40:00;4.23;;;3.83;;
3571;SDS011;7958;53.024;12.970;2023-05-10T01:42:31;5.27;;;4.27;;
3571;SDS011;7958;53.024;12.970;2023-05-10T01:45:06;8.80;;;4.57;;
3571;SDS011;7958;53.024;12.970;2023-05-10T01:47:38;5.47;;;4.60;;
3571;SDS011;7958;53.024;12.970;2023-05-10T01:50:08;4.63;;;4.20;;
3571;SDS011;7958;53.024;12.970;2023-05-10T01:52:47;4.77;;;4.30;;
3571;SDS011;7958;53.024;12.970;2023-05-10T01:55:20;8.70;;;4.60;;
3571;SDS011;7958;53.024;12.970;2023-05-10T01:57:50;6.10;;;4.80;;
3571;SDS011;7958;53.024;12.970;2023-05-10T02:00:19;4.83;;;4.43;;
3571;SDS011;7958;53.024;12.970;2023-05-10T02:02:48;6.57;;;5.00;;
3571;SDS011;7958;53.024;12.970;2023-05-10T02:05:16;4.50;;;3.83;;
3571;SDS011;7958;53.024;12.970;2023-05-10T02:07:42;5.00;;;4.50;;
3571;SDS011;7958;53.024;12.970;2023-05-10T02:10:10;7.03;;;4.77;;
3571;SDS011;7958;53.024;12.970;2023-05-10T02:12:39;8.10;;;4.83;;
3571;SDS011;7958;53.024;12.970;2023-05-10T02:15:08;5.10;;;4.60;;
3571;SDS011;7958;53.024;12.970;2023-05-10T02:17:36;6.00;;;5.00;;
3571;SDS011;7958;53.024;12.970;2023-05-10T02:20:08;6.73;;;4.80;;
3571;SDS011;7958;53.024;12.970;2023-05-10T02:22:36;5.23;;;4.27;;
3571;SDS011;7958;53.024;12.970;2023-05-10T02:25:04;4.97;;;4.47;;
3571;SDS011;7958;53.024;12.970;2023-05-10T02:27:32;5.60;;;4.90;;
3571;SDS011;7958;53.024;12.970;2023-05-10T02:30:00;6.10;;;4.77;;
3571;SDS011;7958;53.024;12.970;2023-05-10T02:32:27;6.70;;;4.70;;
3571;SDS011;7958;53.024;12.970;2023-05-10T02:34:54;5.90;;;4.80;;
3571;SDS011;7958;53.024;12.970;2023-05-10T02:37:22;5.30;;;4.83;;
3571;SDS011;7958;53.024;12.970;2023-05-10T02:39:50;5.47;;;4.80;;
3571;SDS011;7958;53.024;12.970;2023-05-10T02:42:18;7.83;;;5.63;;
3571;SDS011;7958;53.024;12.970;2023-05-10T02:44:47;6.73;;;5.63;;
3571;SDS011;7958;53.024;12.970;2023-05-10T02:47:14;5.13;;;4.40;;
3571;SDS011;7958;53.024;12.970;2023-05-10T02:49:41;7.03;;;4.77;;
3571;SDS011;7958;53.024;12.970;2023-05-10T02:52:08;6.30;;;5.20;;
3571;SDS011;7958;53.024;12.970;2023-05-10T02:54:39;7.77;;;4.90;;
3571;SDS011;7958;53.024;12.970;2023-05-10T02:57:08;6.27;;;5.03;;
3571;SDS011;7958;53.024;12.970;2023-05-10T02:59:39;5.90;;;5.30;;
3571;SDS011;7958;53.024;12.970;2023-05-10T03:02:07;5.47;;;4.90;;
3571;SDS011;7958;53.024;12.970;2023-05-10T03:04:34;7.50;;;4.37;;
3571;SDS011;7958;53.024;12.970;2023-05-10T03:07:01;5.23;;;4.70;;
3571;SDS011;7958;53.024;12.970;2023-05-10T03:09:28;5.87;;;4.67;;
3571;SDS011;7958;53.024;12.970;2023-05-10T03:12:00;10.40;;;5.07;;
3571;SDS011;7958;53.024;12.970;2023-05-10T03:14:34;9.00;;;5.17;;
3571;SDS011;7958;53.024;12.970;2023-05-10T03:17:10;5.97;;;4.57;;
3571;SDS011;7958;53.024;12.970;2023-05-10T03:19:43;5.87;;;4.77;;
3571;SDS011;7958;53.024;12.970;2023-05-10T03:22:14;5.20;;;4.50;;
3571;SDS011;7958;53.024;12.970;2023-05-10T03:24:46;15.10;;;5.17;;
3571;SDS011;7958;53.024;12.970;2023-05-10T03:27:15;5.73;;;4.73;;
3571;SDS011;7958;53.024;12.970;2023-05-10T03:29:41;7.97;;;5.43;;
3571;SDS011;7958;53.024;12.970;2023-05-10T03:32:08;5.70;;;4.80;;
3571;SDS011;7958;53.024;12.970;2023-05-10T03:34:35;6.47;;;4.90;;
3571;SDS011;7958;53.024;12.970;2023-05-10T03:37:07;5.90;;;5.00;;
3571;SDS011;7958;53.024;12.970;2023-05-10T03:39:33;5.37;;;4.73;;
3571;SDS011;7958;53.024;12.970;2023-05-10T03:42:00;6.77;;;4.40;;
3571;SDS011;7958;53.024;12.970;2023-05-10T03:44:27;11.07;;;5.17;;
3571;SDS011;7958;53.024;12.970;2023-05-10T03:46:54;5.70;;;4.70;;
3571;SDS011;7958;53.024;12.970;2023-05-10T03:49:23;6.50;;;4.40;;
3571;SDS011;7958;53.024;12.970;2023-05-10T03:51:49;8.70;;;4.97;;
3571;SDS011;7958;53.024;12.970;2023-05-10T03:54:16;6.57;;;4.47;;
3571;SDS011;7958;53.024;12.970;2023-05-10T03:56:42;6.30;;;4.90;;
3571;SDS011;7958;53.024;12.970;2023-05-10T03:59:08;5.80;;;4.80;;
3571;SDS011;7958;53.024;12.970;2023-05-10T04:01:36;6.70;;;5.33;;
3571;SDS011;7958;53.024;12.970;2023-05-10T04:04:03;5.73;;;4.77;;
3571;SDS011;7958;53.024;12.970;2023-05-10T04:06:29;5.60;;;4.77;;
3571;SDS011;7958;53.024;12.970;2023-05-10T04:08:56;7.60;;;4.90;;
3571;SDS011;7958;53.024;12.970;2023-05-10T04:11:24;4.93;;;4.20;;
3571;SDS011;7958;53.024;12.970;2023-05-10T04:13:51;5.87;;;4.50;;
3571;SDS011;7958;53.024;12.970;2023-05-10T04:16:17;5.07;;;4.33;;
3571;SDS011;7958;53.024;12.970;2023-05-10T04:18:45;5.60;;;4.60;;
3571;SDS011;7958;53.024;12.970;2023-05-10T04:21:11;5.13;;;4.07;;
3571;SDS011;7958;53.024;12.970;2023-05-10T04:23:38;5.37;;;3.87;;
3571;SDS011;7958;53.024;12.970;2023-05-10T04:26:04;7.60;;;4.47;;
3571;SDS011;7958;53.024;12.970;2023-05-10T04:28:31;4.73;;;4.23;;
3571;SDS011;7958;53.024;12.970;2023-05-10T04:31:01;6.33;;;4.33;;
3571;SDS011;7958;53.024;12.970;2023-05-10T04:33:28;8.50;;;4.70;;
3571;SDS011;7958;53.024;12.970;2023-05-10T04:35:56;6.60;;;4.73;;
3571;SDS011;7958;53.024;12.970;2023-05-10T04:38:23;5.90;;;4.53;;
3571;SDS011;7958;53.024;12.970;2023-05-10T04:40:49;12.00;;;4.17;;
3571;SDS011;7958;53.024;12.970;2023-05-10T04:43:16;5.43;;;4.40;;
3571;SDS011;7958;53.024;12.970;2023-05-10T04:45:43;4.20;;;3.80;;
3571;SDS011;7958;53.024;12.970;2023-05-10T04:48:09;5.30;;;3.93;;
3571;SDS011;7958;53.024;12.970;2023-05-10T04:50:36;4.23;;;3.83;;
3571;SDS011;7958;53.024;12.970;2023-05-10T04:53:04;5.40;;;3.70;;
3571;SDS011;7958;53.024;12.970;2023-05-10T04:55:31;4.87;;;4.37;;
3571;SDS011;7958;53.024;12.970;2023-05-10T04:57:57;8.13;;;4.40;;
3571;SDS011;7958;53.024;12.970;2023-05-10T05:00:24;3.73;;;3.27;;
3571;SDS011;7958;53.024;12.970;2023-05-10T05:02:50;5.37;;;3.67;;
3571;SDS011;7958;53.024;12.970;2023-05-10T05:05:17;4.03;;;3.63;;
3571;SDS011;7958;53.024;12.970;2023-05-10T05:07:44;53.33;;;6.23;;
3571;SDS011;7958;53.024;12.970;2023-05-10T05:10:12;7.70;;;3.20;;
3571;SDS011;7958;53.024;12.970;2023-05-10T05:12:38;3.80;;;3.10;;
3571;SDS011;7958;53.024;12.970;2023-05-10T05:15:05;6.87;;;4.27;;
3571;SDS011;7958;53.024;12.970;2023-05-10T05:17:33;5.10;;;3.47;;
3571;SDS011;7958;53.024;12.970;2023-05-10T05:19:59;4.97;;;3.20;;
3571;SDS011;7958;53.024;12.970;2023-05-10T05:22:25;4.63;;;3.60;;
3571;SDS011;7958;53.024;12.970;2023-05-10T05:24:53;4.17;;;3.77;;
3571;SDS011;7958;53.024;12.970;2023-05-10T05:27:21;5.20;;;3.73;;
3571;SDS011;7958;53.024;12.970;2023-05-10T05:29:49;4.50;;;3.67;;
3571;SDS011;7958;53.024;12.970;2023-05-10T05:32:15;5.47;;;3.60;;
3571;SDS011;7958;53.024;12.970;2023-05-10T05:34:43;3.90;;;3.53;;
3571;SDS011;7958;53.024;12.970;2023-05-10T05:37:12;4.97;;;3.97;;
3571;SDS011;7958;53.024;12.970;2023-05-10T05:39:39;3.87;;;3.57;;
3571;SDS011;7958;53.024;12.970;2023-05-10T05:42:05;4.70;;;3.70;;
3571;SDS011;7958;53.024;12.970;2023-05-10T05:44:33;5.30;;;3.20;;
3571;SDS011;7958;53.024;12.970;2023-05-10T05:47:00;3.60;;;3.30;;
3571;SDS011;7958;53.024;12.970;2023-05-10T05:49:26;4.30;;;3.90;;
3571;SDS011;7958;53.024;12.970;2023-05-10T05:51:53;4.07;;;3.60;;
3571;SDS011;7958;53.024;12.970;2023-05-10T05:54:19;9.50;;;3.47;;
3571;SDS011;7958;53.024;12.970;2023-05-10T05:56:47;5.63;;;3.60;;
3571;SDS011;7958;53.024;12.970;2023-05-10T05:59:13;5.60;;;3.90;;
3571;SDS011;7958;53.024;12.970;2023-05-10T06:01:41;4.53;;;3.30;;
3571;SDS011;7958;53.024;12.970;2023-05-10T06:04:07;3.27;;;2.97;;
3571;SDS011;7958;53.024;12.970;2023-05-10T06:06:33;5.00;;;3.30;;
3571;SDS011;7958;53.024;12.970;2023-05-10T06:09:00;6.63;;;3.63;;
3571;SDS011;7958;53.024;12.970;2023-05-10T06:11:26;4.67;;;3.40;;
3571;SDS011;7958;53.024;12.970;2023-05-10T06:13:53;3.20;;;2.90;;
3571;SDS011;7958;53.024;12.970;2023-05-10T06:16:19;3.53;;;3.23;;
3571;SDS011;7958;53.024;12.970;2023-05-10T06:18:47;5.57;;;3.53;;
3571;SDS011;7958;53.024;12.970;2023-05-10T06:21:14;3.80;;;2.93;;
3571;SDS011;7958;53.024;12.970;2023-05-10T06:23:41;4.27;;;2.87;;
3571;SDS011;7958;53.024;12.970;2023-05-10T06:26:08;3.93;;;3.27;;
3571;SDS011;7958;53.024;12.970;2023-05-10T06:28:35;5.70;;;3.20;;
3571;SDS011;7958;53.024;12.970;2023-05-10T06:31:03;5.20;;;3.50;;
3571;SDS011;7958;53.024;12.970;2023-05-10T06:33:29;3.47;;;3.17;;
3571;SDS011;7958;53.024;12.970;2023-05-10T06:35:58;3.30;;;3.00;;
3571;SDS011;7958;53.024;12.970;2023-05-10T06:38:24;3.10;;;2.80;;
3571;SDS011;7958;53.024;12.970;2023-05-10T06:40:51;3.33;;;3.03;;
3571;SDS011;7958;53.024;12.970;2023-05-10T06:43:17;3.30;;;2.90;;
3571;SDS011;7958;53.024;12.970;2023-05-10T06:45:43;10.13;;;2.97;;
3571;SDS011;7958;53.024;12.970;2023-05-10T06:48:10;7.77;;;2.90;;
3571;SDS011;7958;53.024;12.970;2023-05-10T06:50:36;3.10;;;2.47;;
3571;SDS011;7958;53.024;12.970;2023-05-10T06:53:04;3.33;;;3.03;;
3571;SDS011;7958;53.024;12.970;2023-05-10T06:55:31;4.43;;;3.37;;
3571;SDS011;7958;53.024;12.970;2023-05-10T06:57:57;3.20;;;2.60;;
3571;SDS011;7958;53.024;12.970;2023-05-10T07:00:24;2.80;;;2.60;;
3571;SDS011;7958;53.024;12.970;2023-05-10T07:02:50;5.87;;;2.57;;
3571;SDS011;7958;53.024;12.970;2023-05-10T07:05:17;2.47;;;2.30;;
3571;SDS011;7958;53.024;12.970;2023-05-10T07:07:44;3.57;;;2.33;;
3571;SDS011;7958;53.024;12.970;2023-05-10T07:10:12;3.00;;;2.20;;
3571;SDS011;7958;53.024;12.970;2023-05-10T07:12:38;2.60;;;2.40;;
3571;SDS011;7958;53.024;12.970;2023-05-10T07:15:05;6.07;;;2.40;;
3571;SDS011;7958;53.024;12.970;2023-05-10T07:17:32;3.13;;;2.20;;
3571;SDS011;7958;53.024;12.970;2023-05-10T07:19:59;4.37;;;2.53;;
3571;SDS011;7958;53.024;12.970;2023-05-10T07:22:25;5.93;;;2.63;;
3571;SDS011;7958;53.024;12.970;2023-05-10T07:24:52;5.40;;;3.20;;
3571;SDS011;7958;53.024;12.970;2023-05-10T07:27:19;3.27;;;2.70;;
3571;SDS011;7958;53.024;12.970;2023-05-10T07:29:45;6.60;;;2.80;;
3571;SDS011;7958;53.024;12.970;2023-05-10T07:32:12;2.60;;;2.40;;
3571;SDS011;7958;53.024;12.970;2023-05-10T07:34:38;3.03;;;2.70;;
3571;SDS011;7958;53.024;12.970;2023-05-10T07:37:04;4.80;;;2.60;;
3571;SDS011;7958;53.024;12.970;2023-05-10T07:39:31;5.43;;;2.43;;
3571;SDS011;7958;53.024;12.970;2023-05-10T07:41:57;2.90;;;2.43;;
3571;SDS011;7958;53.024;12.970;2023-05-10T07:44:25;5.30;;;2.70;;
3571;SDS011;7958;53.024;12.970;2023-05-10T07:46:51;5.43;;;3.20;;
3571;SDS011;7958;53.024;12.970;2023-05-10T07:49:17;5.73;;;3.20;;
3571;SDS011;7958;53.024;12.970;2023-05-10T07:51:44;3.30;;;2.80;;
3571;SDS011;7958;53.024;12.970;2023-05-10T07:54:10;2.53;;;2.33;;
3571;SDS011;7958;53.024;12.970;2023-05-10T07:56:37;4.47;;;2.60;;
3571;SDS011;7958;53.024;12.970;2023-05-10T07:59:04;6.60;;;2.70;;
3571;SDS011;7958;53.024;12.970;2023-05-10T08:01:33;2.57;;;2.37;;
3571;SDS011;7958;53.024;12.970;2023-05-10T08:04:00;2.60;;;2.40;;
3571;SDS011;7958;53.024;12.970;2023-05-10T08:06:27;2.40;;;2.20;;
3571;SDS011;7958;53.024;12.970;2023-05-10T08:08:54;4.67;;;2.43;;
3571;SDS011;7958;53.024;12.970;2023-05-10T08:11:21;5.43;;;2.53;;
3571;SDS011;7958;53.024;12.970;2023-05-10T08:13:49;4.90;;;2.77;;
3571;SDS011;7958;53.024;12.970;2023-05-10T08:16:16;3.10;;;2.90;;
3571;SDS011;7958;53.024;12.970;2023-05-10T08:18:44;4.13;;;2.37;;
3571;SDS011;7958;53.024;12.970;2023-05-10T08:21:11;2.70;;;2.50;;
3571;SDS011;7958;53.024;12.970;2023-05-10T08:23:38;5.30;;;2.80;;
3571;SDS011;7958;53.024;12.970;2023-05-10T08:26:04;4.60;;;2.90;;
3571;SDS011;7958;53.024;12.970;2023-05-10T08:28:31;2.57;;;2.37;;
3571;SDS011;7958;53.024;12.970;2023-05-10T08:30:57;5.53;;;2.73;;
3571;SDS011;7958;53.024;12.970;2023-05-10T08:33:23;2.90;;;2.40;;
3571;SDS011;7958;53.024;12.970;2023-05-10T08:35:51;5.77;;;3.00;;
3571;SDS011;7958;53.024;12.970;2023-05-10T08:38:18;8.90;;;3.83;;
3571;SDS011;7958;53.024;12.970;2023-05-10T08:40:44;4.27;;;2.40;;
3571;SDS011;7958;53.024;12.970;2023-05-10T08:43:11;2.50;;;2.20;;
3571;SDS011;7958;53.024;12.970;2023-05-10T08:45:41;3.97;;;2.30;;
3571;SDS011;7958;53.024;12.970;2023-05-10T08:48:09;3.23;;;2.40;;
3571;SDS011;7958;53.024;12.970;2023-05-10T08:50:36;4.03;;;2.47;;
3571;SDS011;7958;53.024;12.970;2023-05-10T08:53:06;4.47;;;2.20;;
3571;SDS011;7958;53.024;12.970;2023-05-10T08:55:34;3.03;;;2.40;;
3571;SDS011;7958;53.024;12.970;2023-05-10T08:58:03;8.93;;;2.67;;
3571;SDS011;7958;53.024;12.970;2023-05-10T09:00:30;2.70;;;2.33;;
3571;SDS011;7958;53.024;12.970;2023-05-10T09:02:56;6.93;;;2.40;;
3571;SDS011;7958;53.024;12.970;2023-05-10T09:05:23;4.80;;;2.77;;
3571;SDS011;7958;53.024;12.970;2023-05-10T09:07:50;4.80;;;2.07;;
3571;SDS011;7958;53.024;12.970;2023-05-10T09:10:18;4.97;;;2.57;;
3571;SDS011;7958;53.024;12.970;2023-05-10T09:12:45;3.30;;;2.50;;
3571;SDS011;7958;53.024;12.970;2023-05-10T09:15:12;4.27;;;2.33;;
3571;SDS011;7958;53.024;12.970;2023-05-10T09:17:41;4.10;;;2.60;;
3571;SDS011;7958;53.024;12.970;2023-05-10T09:20:08;4.10;;;2.40;;
3571;SDS011;7958;53.024;12.970;2023-05-10T09:22:35;2.73;;;2.53;;
3571;SDS011;7958;53.024;12.970;2023-05-10T09:25:06;4.20;;;2.37;;
3571;SDS011;7958;53.024;12.970;2023-05-10T09:27:37;3.53;;;2.93;;
3571;SDS011;7958;53.024;12.970;2023-05-10T09:30:05;2.87;;;2.47;;
3571;SDS011;7958;53.024;12.970;2023-05-10T09:32:36;3.97;;;2.57;;
3571;SDS011;7958;53.024;12.970;2023-05-10T09:35:07;2.27;;;2.17;;
3571;SDS011;7958;53.024;12.970;2023-05-10T09:37:34;2.93;;;2.07;;
3571;SDS011;7958;53.024;12.970;2023-05-10T09:40:00;5.10;;;3.10;;
3571;SDS011;7958;53.024;12.970;2023-05-10T09:42:31;4.90;;;2.20;;
3571;SDS011;7958;53.024;12.970;2023-05-10T09:45:01;6.30;;;2.40;;
3571;SDS011;7958;53.024;12.970;2023-05-10T09:47:28;7.43;;;2.60;;
3571;SDS011;7958;53.024;12.970;2023-05-10T09:49:55;4.13;;;2.50;;
3571;SDS011;7958;53.024;12.970;2023-05-10T09:52:28;9.07;;;2.60;;
3571;SDS011;7958;53.024;12.970;2023-05-10T09:54:54;3.97;;;2.80;;
3571;SDS011;7958;53.024;12.970;2023-05-10T09:57:21;2.53;;;2.23;;
3571;SDS011;7958;53.024;12.970;2023-05-10T09:59:48;5.07;;;2.13;;
3571;SDS011;7958;53.024;12.970;2023-05-10T10:02:16;5.67;;;2.67;;
3571;SDS011;7958;53.024;12.970;2023-05-10T10:04:43;2.97;;;2.40;;
3571;SDS011;7958;53.024;12.970;2023-05-10T10:07:09;3.93;;;2.63;;
3571;SDS011;7958;53.024;12.970;2023-05-10T10:09:36;2.57;;;2.37;;
3571;SDS011;7958;53.024;12.970;2023-05-10T10:12:02;3.00;;;2.47;;
3571;SDS011;7958;53.024;12.970;2023-05-10T10:14:29;2.63;;;2.43;;
3571;SDS011;7958;53.024;12.970;2023-05-10T10:16:56;4.30;;;2.73;;
3571;SDS011;7958;53.024;12.970;2023-05-10T10:19:24;2.67;;;2.43;;
3571;SDS011;7958;53.024;12.970;2023-05-10T10:21:51;2.57;;;2.23;;
3571;SDS011;7958;53.024;12.970;2023-05-10T10:24:18;3.90;;;2.47;;
3571;SDS011;7958;53.024;12.970;2023-05-10T10:26:45;2.70;;;2.20;;
3571;SDS011;7958;53.024;12.970;2023-05-10T10:29:16;5.73;;;2.40;;
3571;SDS011;7958;53.024;12.970;2023-05-10T10:31:51;4.60;;;2.63;;
3571;SDS011;7958;53.024;12.970;2023-05-10T10:34:26;2.20;;;1.97;;
3571;SDS011;7958;53.024;12.970;2023-05-10T10:36:54;3.50;;;2.40;;
3571;SDS011;7958;53.024;12.970;2023-05-10T10:39:23;3.43;;;2.43;;
3571;SDS011;7958;53.024;12.970;2023-05-10T10:41:51;4.17;;;2.60;;
3571;SDS011;7958;53.024;12.970;2023-05-10T10:44:35;5.67;;;2.47;;
3571;SDS011;7958;53.024;12.970;2023-05-10T10:47:07;3.10;;;2.30;;
3571;SDS011;7958;53.024;12.970;2023-05-10T10:49:44;2.73;;;2.50;;
3571;SDS011;7958;53.024;12.970;2023-05-10T10:52:20;2.90;;;2.33;;
3571;SDS011;7958;53.024;12.970;2023-05-10T10:54:56;3.60;;;2.40;;
3571;SDS011;7958;53.024;12.970;2023-05-10T10:57:25;2.50;;;2.30;;
3571;SDS011;7958;53.024;12.970;2023-05-10T11:02:47;2.80;;;2.20;;
3571;SDS011;7958;53.024;12.970;2023-05-10T11:05:33;2.40;;;2.20;;
3571;SDS011;7958;53.024;12.970;2023-05-10T11:08:12;2.80;;;2.53;;
3571;SDS011;7958;53.024;12.970;2023-05-10T11:10:53;2.50;;;2.30;;
3571;SDS011;7958;53.024;12.970;2023-05-10T11:13:28;2.83;;;2.43;;
3571;SDS011;7958;53.024;12.970;2023-05-10T11:15:56;3.40;;;2.47;;
3571;SDS011;7958;53.024;12.970;2023-05-10T11:18:24;3.30;;;2.30;;
3571;SDS011;7958;53.024;12.970;2023-05-10T11:20:55;2.23;;;2.13;;
3571;SDS011;7958;53.024;12.970;2023-05-10T11:23:23;2.40;;;2.30;;
3571;SDS011;7958;53.024;12.970;2023-05-10T11:25:51;5.93;;;2.33;;
3571;SDS011;7958;53.024;12.970;2023-05-10T11:28:17;2.93;;;2.60;;
3571;SDS011;7958;53.024;12.970;2023-05-10T11:30:46;4.43;;;2.60;;
3571;SDS011;7958;53.024;12.970;2023-05-10T11:33:17;3.70;;;2.53;;
3571;SDS011;7958;53.024;12.970;2023-05-10T11:35:45;4.37;;;2.30;;
3571;SDS011;7958;53.024;12.970;2023-05-10T11:38:16;2.33;;;2.00;;
3571;SDS011;7958;53.024;12.970;2023-05-10T11:40:42;6.43;;;2.50;;
3571;SDS011;7958;53.024;12.970;2023-05-10T11:43:09;8.10;;;2.70;;
3571;SDS011;7958;53.024;12.970;2023-05-10T11:45:41;2.80;;;2.60;;
3571;SDS011;7958;53.024;12.970;2023-05-10T11:48:09;3.17;;;2.70;;
3571;SDS011;7958;53.024;12.970;2023-05-10T11:50:35;3.07;;;2.40;;
3571;SDS011;7958;53.024;12.970;2023-05-10T11:53:02;4.17;;;2.73;;
3571;SDS011;7958;53.024;12.970;2023-05-10T11:55:31;5.53;;;2.43;;
3571;SDS011;7958;53.024;12.970;2023-05-10T11:58:00;3.67;;;2.40;;
3571;SDS011;7958;53.024;12.970;2023-05-10T12:00:28;3.03;;;2.77;;
3571;SDS011;7958;53.024;12.970;2023-05-10T12:02:55;9.33;;;3.30;;
3571;SDS011;7958;53.024;12.970;2023-05-10T12:05:22;2.60;;;2.40;;
3571;SDS011;7958;53.024;12.970;2023-05-10T12:07:49;2.60;;;2.40;;
3571;SDS011;7958;53.024;12.970;2023-05-10T12:10:17;4.37;;;2.33;;
3571;SDS011;7958;53.024;12.970;2023-05-10T12:12:55;2.40;;;2.20;;
3571;SDS011;7958;53.024;12.970;2023-05-10T12:15:23;2.60;;;2.40;;
3571;SDS011;7958;53.024;12.970;2023-05-10T12:17:50;3.73;;;2.60;;
3571;SDS011;7958;53.024;12.970;2023-05-10T12:20:19;3.93;;;2.20;;
3571;SDS011;7958;53.024;12.970;2023-05-10T12:22:47;2.50;;;2.30;;
3571;SDS011;7958;53.024;12.970;2023-05-10T12:25:16;2.67;;;2.47;;
3571;SDS011;7958;53.024;12.970;2023-05-10T12:27:55;3.90;;;2.50;;
3571;SDS011;7958;53.024;12.970;2023-05-10T12:30:23;5.47;;;2.40;;
3571;SDS011;7958;53.024;12.970;2023-05-10T12:32:51;3.60;;;2.83;;
3571;SDS011;7958;53.024;12.970;2023-05-10T12:35:18;2.83;;;2.50;;
3571;SDS011;7958;53.024;12.970;2023-05-10T12:37:47;3.00;;;2.60;;
3571;SDS011;7958;53.024;12.970;2023-05-10T12:40:13;6.63;;;2.67;;
3571;SDS011;7958;53.024;12.970;2023-05-10T12:42:40;2.53;;;2.33;;
3571;SDS011;7958;53.024;12.970;2023-05-10T12:45:11;3.47;;;2.50;;
3571;SDS011;7958;53.024;12.970;2023-05-10T12:47:37;4.70;;;2.70;;
3571;SDS011;7958;53.024;12.970;2023-05-10T12:50:05;4.13;;;2.87;;
3571;SDS011;7958;53.024;12.970;2023-05-10T12:52:33;4.43;;;2.60;;
3571;SDS011;7958;53.024;12.970;2023-05-10T12:55:00;3.43;;;2.53;;
3571;SDS011;7958;53.024;12.970;2023-05-10T12:57:28;3.00;;;2.77;;
3571;SDS011;7958;53.024;12.970;2023-05-10T12:59:56;4.00;;;2.57;;
3571;SDS011;7958;53.024;12.970;2023-05-10T13:02:24;2.47;;;2.27;;
3571;SDS011;7958;53.024;12.970;2023-05-10T13:04:51;4.50;;;3.03;;
3571;SDS011;7958;53.024;12.970;2023-05-10T13:07:17;5.37;;;3.00;;
3571;SDS011;7958;53.024;12.970;2023-05-10T13:09:45;3.77;;;2.77;;
3571;SDS011;7958;53.024;12.970;2023-05-10T13:12:12;2.53;;;2.33;;
3571;SDS011;7958;53.024;12.970;2023-05-10T13:14:39;2.73;;;2.53;;
3571;SDS011;7958;53.024;12.970;2023-05-10T13:17:06;3.00;;;2.37;;
3571;SDS011;7958;53.024;12.970;2023-05-10T13:19:34;2.90;;;2.70;;
3571;SDS011;7958;53.024;12.970;2023-05-10T13:22:02;3.00;;;2.80;;
3571;SDS011;7958;53.024;12.970;2023-05-10T13:24:29;4.40;;;2.90;;
3571;SDS011;7958;53.024;12.970;2023-05-10T13:26:56;4.23;;;2.53;;
3571;SDS011;7958;53.024;12.970;2023-05-10T13:29:22;9.33;;;2.47;;
3571;SDS011;7958;53.024;12.970;2023-05-10T13:31:49;4.10;;;2.50;;
3571;SDS011;7958;53.024;12.970;2023-05-10T13:34:16;3.10;;;2.80;;
3571;SDS011;7958;53.024;12.970;2023-05-10T13:36:46;2.90;;;2.70;;
3571;SDS011;7958;53.024;12.970;2023-05-10T13:39:13;4.43;;;2.30;;
3571;SDS011;7958;53.024;12.970;2023-05-10T13:41:40;4.00;;;2.60;;
3571;SDS011;7958;53.024;12.970;2023-05-10T13:44:07;5.10;;;4.00;;
3571;SDS011;7958;53.024;12.970;2023-05-10T13:46:33;4.63;;;2.87;;
3571;SDS011;7958;53.024;12.970;2023-05-10T13:49:00;3.37;;;2.00;;
3571;SDS011;7958;53.024;12.970;2023-05-10T13:51:27;2.80;;;2.60;;
3571;SDS011;7958;53.024;12.970;2023-05-10T13:53:56;7.03;;;2.93;;
3571;SDS011;7958;53.024;12.970;2023-05-10T13:56:22;3.40;;;3.00;;
3571;SDS011;7958;53.024;12.970;2023-05-10T13:58:50;5.60;;;2.27;;
3571;SDS011;7958;53.024;12.970;2023-05-10T14:01:17;5.30;;;2.67;;
3571;SDS011;7958;53.024;12.970;2023-05-10T14:03:44;3.57;;;2.83;;
3571;SDS011;7958;53.024;12.970;2023-05-10T14:06:11;3.37;;;2.90;;
3571;SDS011;7958;53.024;12.970;2023-05-10T14:08:37;2.30;;;2.20;;
3571;SDS011;7958;53.024;12.970;2023-05-10T14:11:06;4.60;;;2.50;;
3571;SDS011;7958;53.024;12.970;2023-05-10T14:13:33;3.60;;;2.50;;
3571;SDS011;7958;53.024;12.970;2023-05-10T14:16:00;2.77;;;2.17;;
3571;SDS011;7958;53.024;12.970;2023-05-10T14:18:27;5.07;;;3.17;;
3571;SDS011;7958;53.024;12.970;2023-05-10T14:20:55;7.27;;;3.07;;
3571;SDS011;7958;53.024;12.970;2023-05-10T14:23:23;2.33;;;2.10;;
3571;SDS011;7958;53.024;12.970;2023-05-10T14:25:50;6.03;;;2.50;;
3571;SDS011;7958;53.024;12.970;2023-05-10T14:28:19;6.90;;;2.67;;
3571;SDS011;7958;53.024;12.970;2023-05-10T14:30:47;4.03;;;2.37;;
3571;SDS011;7958;53.024;12.970;2023-05-10T14:33:13;12.20;;;2.60;;
3571;SDS011;7958;53.024;12.970;2023-05-10T14:35:40;5.87;;;2.83;;
3571;SDS011;7958;53.024;12.970;2023-05-10T14:38:07;6.40;;;2.77;;
3571;SDS011;7958;53.024;12.970;2023-05-10T14:40:33;4.00;;;2.77;;
3571;SDS011;7958;53.024;12.970;2023-05-10T14:43:00;5.83;;;2.80;;
3571;SDS011;7958;53.024;12.970;2023-05-10T14:45:29;8.67;;;2.77;;
3571;SDS011;7958;53.024;12.970;2023-05-10T14:47:55;6.93;;;3.30;;
3571;SDS011;7958;53.024;12.970;2023-05-10T14:50:22;7.87;;;3.00;;
3571;SDS011;7958;53.024;12.970;2023-05-10T14:52:48;3.50;;;2.93;;
3571;SDS011;7958;53.024;12.970;2023-05-10T14:55:15;5.10;;;2.60;;
3571;SDS011;7958;53.024;12.970;2023-05-10T14:57:42;9.27;;;3.27;;
3571;SDS011;7958;53.024;12.970;2023-05-10T15:00:09;2.17;;;2.07;;
3571;SDS011;7958;53.024;12.970;2023-05-10T15:02:38;4.50;;;2.60;;
3571;SDS011;7958;53.024;12.970;2023-05-10T15:05:05;5.67;;;2.60;;
3571;SDS011;7958;53.024;12.970;2023-05-10T15:07:32;5.90;;;2.67;;